sensor_id;sensor_type;location;lat;lon;timestamp;P1;durP1;ratioP1;P2;durP2;ratioP2
45007;SDS011;30743;52.008;5.644;2023-04-06T00:01:25;8.73;;;5.72;;
45007;SDS011;30743;52.008;5.644;2023-04-06T00:03:51;9.40;;;5.50;;
45007;SDS011;30743;52.008;5.644;2023-04-06T00:06:16;9.55;;;5.70;;
45007;SDS011;30743;52.008;5.644;2023-04-06T00:08:42;10.55;;;6.03;;
45007;SDS011;30743;52.008;5.644;2023-04-06T00:11:08;8.30;;;5.72;;
45007;SDS011;30743;52.008;5.644;2023-04-06T00:13:33;9.25;;;5.72;;
45007;SDS011;30743;52.008;5.644;2023-04-06T00:15:59;9.82;;;5.75;;
45007;SDS011;30743;52.008;5.644;2023-04-06T00:18:25;7.30;;;5.55;;
45007;SDS011;30743;52.008;5.644;2023-04-06T00:20:51;14.52;;;6.15;;
45007;SDS011;30743;52.008;5.644;2023-04-06T00:23:17;9.40;;;5.82;;
45007;SDS011;30743;52.008;5.644;2023-04-06T00:25:42;9.50;;;6.10;;
45007;SDS011;30743;52.008;5.644;2023-04-06T00:28:08;10.38;;;5.75;;
45007;SDS011;30743;52.008;5.644;2023-04-06T00:30:33;9.65;;;5.57;;
45007;SDS011;30743;52.008;5.644;2023-04-06T00:32:59;9.35;;;5.90;;
45007;SDS011;30743;52.008;5.644;2023-04-06T00:35:25;10.85;;;6.45;;
45007;SDS011;30743;52.008;5.644;2023-04-06T00:37:51;10.43;;;5.68;;
45007;SDS011;30743;52.008;5.644;2023-04-06T00:40:16;10.43;;;5.75;;
45007;SDS011;30743;52.008;5.644;2023-04-06T00:42:42;9.88;;;5.75;;
45007;SDS011;30743;52.008;5.644;2023-04-06T00:45:08;10.88;;;5.50;;
45007;SDS011;30743;52.008;5.644;2023-04-06T00:47:35;9.45;;;6.20;;
45007;SDS011;30743;52.008;5.644;2023-04-06T00:50:00;9.00;;;5.78;;
45007;SDS011;30743;52.008;5.644;2023-04-06T00:52:26;8.43;;;5.65;;
45007;SDS011;30743;52.008;5.644;2023-04-06T00:54:52;8.73;;;5.45;;
45007;SDS011;30743;52.008;5.644;2023-04-06T00:57:18;10.35;;;6.05;;
45007;SDS011;30743;52.008;5.644;2023-04-06T00:59:44;8.85;;;5.68;;
45007;SDS011;30743;52.008;5.644;2023-04-06T01:02:10;11.00;;;5.47;;
45007;SDS011;30743;52.008;5.644;2023-04-06T01:04:35;10.00;;;5.93;;
45007;SDS011;30743;52.008;5.644;2023-04-06T01:07:01;9.07;;;5.90;;
45007;SDS011;30743;52.008;5.644;2023-04-06T01:09:27;17.15;;;6.05;;
45007;SDS011;30743;52.008;5.644;2023-04-06T01:11:54;11.27;;;5.85;;
45007;SDS011;30743;52.008;5.644;2023-04-06T01:14:21;10.80;;;5.75;;
45007;SDS011;30743;52.008;5.644;2023-04-06T01:16:46;8.68;;;5.80;;
45007;SDS011;30743;52.008;5.644;2023-04-06T01:19:12;9.23;;;6.22;;
45007;SDS011;30743;52.008;5.644;2023-04-06T01:21:39;9.90;;;5.95;;
45007;SDS011;30743;52.008;5.644;2023-04-06T01:24:05;8.70;;;5.93;;
45007;SDS011;30743;52.008;5.644;2023-04-06T01:26:32;10.55;;;6.13;;
45007;SDS011;30743;52.008;5.644;2023-04-06T01:28:58;9.20;;;5.97;;
45007;SDS011;30743;52.008;5.644;2023-04-06T01:31:24;8.60;;;5.45;;
45007;SDS011;30743;52.008;5.644;2023-04-06T01:33:51;8.65;;;5.60;;
45007;SDS011;30743;52.008;5.644;2023-04-06T01:36:16;7.70;;;5.43;;
45007;SDS011;30743;52.008;5.644;2023-04-06T01:38:42;11.30;;;5.10;;
45007;SDS011;30743;52.008;5.644;2023-04-06T01:41:08;9.77;;;5.85;;
45007;SDS011;30743;52.008;5.644;2023-04-06T01:43:33;10.60;;;5.97;;
45007;SDS011;30743;52.008;5.644;2023-04-06T01:45:59;8.88;;;5.60;;
45007;SDS011;30743;52.008;5.644;2023-04-06T01:48:25;10.20;;;5.40;;
45007;SDS011;30743;52.008;5.644;2023-04-06T01:50:51;6.50;;;4.80;;
45007;SDS011;30743;52.008;5.644;2023-04-06T01:53:17;7.97;;;5.68;;
45007;SDS011;30743;52.008;5.644;2023-04-06T01:55:43;9.07;;;5.60;;
45007;SDS011;30743;52.008;5.644;2023-04-06T01:58:08;9.25;;;6.07;;
45007;SDS011;30743;52.008;5.644;2023-04-06T02:00:34;9.15;;;5.85;;
45007;SDS011;30743;52.008;5.644;2023-04-06T02:03:00;10.40;;;5.78;;
45007;SDS011;30743;52.008;5.644;2023-04-06T02:05:25;9.27;;;5.57;;
45007;SDS011;30743;52.008;5.644;2023-04-06T02:07:51;9.98;;;5.20;;
45007;SDS011;30743;52.008;5.644;2023-04-06T02:10:17;9.02;;;5.60;;
45007;SDS011;30743;52.008;5.644;2023-04-06T02:12:42;8.10;;;5.18;;
45007;SDS011;30743;52.008;5.644;2023-04-06T02:15:08;8.38;;;5.32;;
45007;SDS011;30743;52.008;5.644;2023-04-06T02:17:34;8.82;;;5.45;;
45007;SDS011;30743;52.008;5.644;2023-04-06T02:20:00;9.65;;;5.82;;
45007;SDS011;30743;52.008;5.644;2023-04-06T02:22:25;11.02;;;5.85;;
45007;SDS011;30743;52.008;5.644;2023-04-06T02:24:51;8.90;;;5.60;;
45007;SDS011;30743;52.008;5.644;2023-04-06T02:27:16;8.77;;;5.50;;
45007;SDS011;30743;52.008;5.644;2023-04-06T02:29:42;8.52;;;5.07;;
45007;SDS011;30743;52.008;5.644;2023-04-06T02:32:07;11.90;;;5.70;;
45007;SDS011;30743;52.008;5.644;2023-04-06T02:34:33;8.95;;;5.32;;
45007;SDS011;30743;52.008;5.644;2023-04-06T02:36:58;7.78;;;5.03;;
45007;SDS011;30743;52.008;5.644;2023-04-06T02:39:24;8.82;;;5.55;;
45007;SDS011;30743;52.008;5.644;2023-04-06T02:41:49;10.38;;;5.78;;
45007;SDS011;30743;52.008;5.644;2023-04-06T02:44:15;8.70;;;5.55;;
45007;SDS011;30743;52.008;5.644;2023-04-06T02:46:40;10.27;;;5.38;;
45007;SDS011;30743;52.008;5.644;2023-04-06T02:49:06;10.82;;;6.03;;
45007;SDS011;30743;52.008;5.644;2023-04-06T02:51:32;9.32;;;6.10;;
45007;SDS011;30743;52.008;5.644;2023-04-06T02:53:58;9.23;;;5.75;;
45007;SDS011;30743;52.008;5.644;2023-04-06T02:56:24;9.43;;;5.88;;
45007;SDS011;30743;52.008;5.644;2023-04-06T02:58:49;8.55;;;4.90;;
45007;SDS011;30743;52.008;5.644;2023-04-06T03:01:15;9.27;;;5.78;;
45007;SDS011;30743;52.008;5.644;2023-04-06T03:03:41;9.57;;;5.90;;
45007;SDS011;30743;52.008;5.644;2023-04-06T03:06:06;8.95;;;6.03;;
45007;SDS011;30743;52.008;5.644;2023-04-06T03:08:32;8.20;;;5.72;;
45007;SDS011;30743;52.008;5.644;2023-04-06T03:10:57;13.30;;;5.45;;
45007;SDS011;30743;52.008;5.644;2023-04-06T03:13:23;9.57;;;5.90;;
45007;SDS011;30743;52.008;5.644;2023-04-06T03:15:48;9.45;;;5.57;;
45007;SDS011;30743;52.008;5.644;2023-04-06T03:18:14;8.75;;;5.95;;
45007;SDS011;30743;52.008;5.644;2023-04-06T03:20:40;8.27;;;5.80;;
45007;SDS011;30743;52.008;5.644;2023-04-06T03:23:05;10.70;;;6.50;;
45007;SDS011;30743;52.008;5.644;2023-04-06T03:25:31;9.27;;;6.00;;
45007;SDS011;30743;52.008;5.644;2023-04-06T03:27:56;10.30;;;5.82;;
45007;SDS011;30743;52.008;5.644;2023-04-06T03:30:22;9.05;;;6.22;;
45007;SDS011;30743;52.008;5.644;2023-04-06T03:32:47;8.27;;;5.60;;
45007;SDS011;30743;52.008;5.644;2023-04-06T03:35:13;11.75;;;6.05;;
45007;SDS011;30743;52.008;5.644;2023-04-06T03:37:39;8.48;;;5.78;;
45007;SDS011;30743;52.008;5.644;2023-04-06T03:40:05;8.65;;;5.10;;
45007;SDS011;30743;52.008;5.644;2023-04-06T03:42:31;11.23;;;6.00;;
45007;SDS011;30743;52.008;5.644;2023-04-06T03:44:57;8.90;;;5.55;;
45007;SDS011;30743;52.008;5.644;2023-04-06T03:47:23;9.10;;;6.00;;
45007;SDS011;30743;52.008;5.644;2023-04-06T03:49:49;8.07;;;5.70;;
45007;SDS011;30743;52.008;5.644;2023-04-06T03:52:14;8.43;;;5.65;;
45007;SDS011;30743;52.008;5.644;2023-04-06T03:54:40;12.27;;;5.82;;
45007;SDS011;30743;52.008;5.644;2023-04-06T03:57:05;9.60;;;6.05;;
45007;SDS011;30743;52.008;5.644;2023-04-06T03:59:31;9.32;;;6.18;;
45007;SDS011;30743;52.008;5.644;2023-04-06T04:01:56;12.98;;;6.53;;
45007;SDS011;30743;52.008;5.644;2023-04-06T04:04:22;11.38;;;6.30;;
45007;SDS011;30743;52.008;5.644;2023-04-06T04:06:47;9.52;;;6.57;;
45007;SDS011;30743;52.008;5.644;2023-04-06T04:09:13;13.63;;;6.15;;
45007;SDS011;30743;52.008;5.644;2023-04-06T04:11:38;10.23;;;6.35;;
45007;SDS011;30743;52.008;5.644;2023-04-06T04:14:04;9.73;;;6.18;;
45007;SDS011;30743;52.008;5.644;2023-04-06T04:16:29;13.23;;;7.32;;
45007;SDS011;30743;52.008;5.644;2023-04-06T04:18:55;10.50;;;6.25;;
45007;SDS011;30743;52.008;5.644;2023-04-06T04:21:22;12.05;;;6.78;;
45007;SDS011;30743;52.008;5.644;2023-04-06T04:23:48;12.77;;;7.57;;
45007;SDS011;30743;52.008;5.644;2023-04-06T04:26:13;11.23;;;7.22;;
45007;SDS011;30743;52.008;5.644;2023-04-06T04:28:39;10.00;;;6.32;;
45007;SDS011;30743;52.008;5.644;2023-04-06T04:31:05;11.48;;;7.18;;
45007;SDS011;30743;52.008;5.644;2023-04-06T04:33:30;10.45;;;6.50;;
45007;SDS011;30743;52.008;5.644;2023-04-06T04:35:56;14.73;;;7.38;;
45007;SDS011;30743;52.008;5.644;2023-04-06T04:38:21;9.75;;;6.68;;
45007;SDS011;30743;52.008;5.644;2023-04-06T04:40:47;15.25;;;7.68;;
45007;SDS011;30743;52.008;5.644;2023-04-06T04:43:12;14.00;;;7.53;;
45007;SDS011;30743;52.008;5.644;2023-04-06T04:45:38;10.82;;;6.60;;
45007;SDS011;30743;52.008;5.644;2023-04-06T04:48:03;11.45;;;7.40;;
45007;SDS011;30743;52.008;5.644;2023-04-06T04:50:30;11.27;;;7.78;;
45007;SDS011;30743;52.008;5.644;2023-04-06T04:52:55;10.60;;;6.45;;
45007;SDS011;30743;52.008;5.644;2023-04-06T04:55:21;12.55;;;7.30;;
45007;SDS011;30743;52.008;5.644;2023-04-06T04:57:46;14.38;;;7.18;;
45007;SDS011;30743;52.008;5.644;2023-04-06T05:00:12;12.32;;;7.63;;
45007;SDS011;30743;52.008;5.644;2023-04-06T05:02:38;12.98;;;7.40;;
45007;SDS011;30743;52.008;5.644;2023-04-06T05:05:04;11.35;;;7.50;;
45007;SDS011;30743;52.008;5.644;2023-04-06T05:07:30;14.55;;;8.00;;
45007;SDS011;30743;52.008;5.644;2023-04-06T05:09:56;13.23;;;7.40;;
45007;SDS011;30743;52.008;5.644;2023-04-06T05:12:21;14.52;;;7.53;;
45007;SDS011;30743;52.008;5.644;2023-04-06T05:14:47;13.20;;;8.25;;
45007;SDS011;30743;52.008;5.644;2023-04-06T05:17:12;12.65;;;7.78;;
45007;SDS011;30743;52.008;5.644;2023-04-06T05:19:38;12.23;;;7.93;;
45007;SDS011;30743;52.008;5.644;2023-04-06T05:22:04;12.75;;;8.02;;
45007;SDS011;30743;52.008;5.644;2023-04-06T05:24:29;13.77;;;7.80;;
45007;SDS011;30743;52.008;5.644;2023-04-06T05:26:55;13.20;;;7.05;;
45007;SDS011;30743;52.008;5.644;2023-04-06T05:29:20;13.73;;;8.10;;
45007;SDS011;30743;52.008;5.644;2023-04-06T05:31:50;16.80;;;8.40;;
45007;SDS011;30743;52.008;5.644;2023-04-06T05:34:16;12.55;;;8.30;;
45007;SDS011;30743;52.008;5.644;2023-04-06T05:36:41;11.98;;;7.97;;
45007;SDS011;30743;52.008;5.644;2023-04-06T05:39:07;15.77;;;8.82;;
45007;SDS011;30743;52.008;5.644;2023-04-06T05:41:33;12.63;;;8.15;;
45007;SDS011;30743;52.008;5.644;2023-04-06T05:43:58;16.10;;;8.93;;
45007;SDS011;30743;52.008;5.644;2023-04-06T05:46:24;16.95;;;9.48;;
45007;SDS011;30743;52.008;5.644;2023-04-06T05:48:49;16.02;;;8.32;;
45007;SDS011;30743;52.008;5.644;2023-04-06T05:51:15;14.32;;;9.02;;
45007;SDS011;30743;52.008;5.644;2023-04-06T05:53:40;13.88;;;8.43;;
45007;SDS011;30743;52.008;5.644;2023-04-06T05:56:06;14.07;;;8.98;;
45007;SDS011;30743;52.008;5.644;2023-04-06T05:58:32;14.00;;;8.82;;
45007;SDS011;30743;52.008;5.644;2023-04-06T06:01:00;16.05;;;8.55;;
45007;SDS011;30743;52.008;5.644;2023-04-06T06:03:27;14.88;;;8.88;;
45007;SDS011;30743;52.008;5.644;2023-04-06T06:05:53;13.38;;;8.52;;
45007;SDS011;30743;52.008;5.644;2023-04-06T06:08:23;15.05;;;9.55;;
45007;SDS011;30743;52.008;5.644;2023-04-06T06:10:49;13.10;;;8.63;;
45007;SDS011;30743;52.008;5.644;2023-04-06T06:13:15;14.75;;;8.90;;
45007;SDS011;30743;52.008;5.644;2023-04-06T06:15:41;14.00;;;8.88;;
45007;SDS011;30743;52.008;5.644;2023-04-06T06:18:06;16.10;;;9.90;;
45007;SDS011;30743;52.008;5.644;2023-04-06T06:20:32;12.57;;;8.63;;
45007;SDS011;30743;52.008;5.644;2023-04-06T06:22:57;14.95;;;9.63;;
45007;SDS011;30743;52.008;5.644;2023-04-06T06:25:23;12.65;;;7.88;;
45007;SDS011;30743;52.008;5.644;2023-04-06T06:27:49;14.40;;;9.02;;
45007;SDS011;30743;52.008;5.644;2023-04-06T06:30:14;17.48;;;9.13;;
45007;SDS011;30743;52.008;5.644;2023-04-06T06:32:40;13.82;;;9.13;;
45007;SDS011;30743;52.008;5.644;2023-04-06T06:35:06;13.60;;;8.90;;
45007;SDS011;30743;52.008;5.644;2023-04-06T06:37:32;13.38;;;9.20;;
45007;SDS011;30743;52.008;5.644;2023-04-06T06:39:57;14.88;;;8.50;;
45007;SDS011;30743;52.008;5.644;2023-04-06T06:42:22;17.48;;;8.95;;
45007;SDS011;30743;52.008;5.644;2023-04-06T06:44:48;20.00;;;9.25;;
45007;SDS011;30743;52.008;5.644;2023-04-06T06:47:14;15.20;;;9.07;;
45007;SDS011;30743;52.008;5.644;2023-04-06T06:49:39;17.90;;;9.65;;
45007;SDS011;30743;52.008;5.644;2023-04-06T06:52:05;16.80;;;9.93;;
45007;SDS011;30743;52.008;5.644;2023-04-06T06:54:31;14.77;;;9.57;;
45007;SDS011;30743;52.008;5.644;2023-04-06T06:56:56;16.10;;;9.50;;
45007;SDS011;30743;52.008;5.644;2023-04-06T06:59:22;13.40;;;9.13;;
45007;SDS011;30743;52.008;5.644;2023-04-06T07:01:47;14.93;;;9.45;;
45007;SDS011;30743;52.008;5.644;2023-04-06T07:04:14;20.17;;;9.80;;
45007;SDS011;30743;52.008;5.644;2023-04-06T07:06:40;15.48;;;9.38;;
45007;SDS011;30743;52.008;5.644;2023-04-06T07:09:05;17.55;;;9.65;;
45007;SDS011;30743;52.008;5.644;2023-04-06T07:11:31;18.60;;;10.23;;
45007;SDS011;30743;52.008;5.644;2023-04-06T07:13:57;24.50;;;10.52;;
45007;SDS011;30743;52.008;5.644;2023-04-06T07:16:22;15.85;;;9.27;;
45007;SDS011;30743;52.008;5.644;2023-04-06T07:18:48;17.25;;;10.27;;
45007;SDS011;30743;52.008;5.644;2023-04-06T07:21:13;15.30;;;9.90;;
45007;SDS011;30743;52.008;5.644;2023-04-06T07:23:39;17.17;;;10.90;;
45007;SDS011;30743;52.008;5.644;2023-04-06T07:26:04;18.20;;;10.32;;
45007;SDS011;30743;52.008;5.644;2023-04-06T07:28:30;16.00;;;9.43;;
45007;SDS011;30743;52.008;5.644;2023-04-06T07:30:56;17.23;;;10.32;;
45007;SDS011;30743;52.008;5.644;2023-04-06T07:33:21;19.17;;;9.65;;
45007;SDS011;30743;52.008;5.644;2023-04-06T07:35:47;14.93;;;9.88;;
45007;SDS011;30743;52.008;5.644;2023-04-06T07:38:12;16.95;;;10.57;;
45007;SDS011;30743;52.008;5.644;2023-04-06T07:40:38;15.27;;;9.60;;
45007;SDS011;30743;52.008;5.644;2023-04-06T07:43:03;15.05;;;10.07;;
45007;SDS011;30743;52.008;5.644;2023-04-06T07:45:29;17.88;;;10.48;;
45007;SDS011;30743;52.008;5.644;2023-04-06T07:47:55;17.35;;;9.65;;
45007;SDS011;30743;52.008;5.644;2023-04-06T07:50:20;17.88;;;10.85;;
45007;SDS011;30743;52.008;5.644;2023-04-06T07:52:46;16.05;;;11.00;;
45007;SDS011;30743;52.008;5.644;2023-04-06T07:55:12;17.98;;;10.07;;
45007;SDS011;30743;52.008;5.644;2023-04-06T07:57:37;16.92;;;10.18;;
45007;SDS011;30743;52.008;5.644;2023-04-06T08:00:03;29.83;;;11.90;;
45007;SDS011;30743;52.008;5.644;2023-04-06T08:02:29;26.52;;;12.20;;
45007;SDS011;30743;52.008;5.644;2023-04-06T08:04:58;15.73;;;10.05;;
45007;SDS011;30743;52.008;5.644;2023-04-06T08:07:23;19.13;;;10.10;;
45007;SDS011;30743;52.008;5.644;2023-04-06T08:09:49;15.60;;;9.73;;
45007;SDS011;30743;52.008;5.644;2023-04-06T08:12:15;17.20;;;9.95;;
45007;SDS011;30743;52.008;5.644;2023-04-06T08:14:40;18.80;;;10.63;;
45007;SDS011;30743;52.008;5.644;2023-04-06T08:17:06;17.85;;;10.27;;
45007;SDS011;30743;52.008;5.644;2023-04-06T08:19:31;15.95;;;10.73;;
45007;SDS011;30743;52.008;5.644;2023-04-06T08:21:57;14.88;;;10.80;;
45007;SDS011;30743;52.008;5.644;2023-04-06T08:24:22;16.83;;;10.55;;
45007;SDS011;30743;52.008;5.644;2023-04-06T08:26:48;16.83;;;10.65;;
45007;SDS011;30743;52.008;5.644;2023-04-06T08:29:14;18.67;;;10.23;;
45007;SDS011;30743;52.008;5.644;2023-04-06T08:31:39;17.75;;;11.10;;
45007;SDS011;30743;52.008;5.644;2023-04-06T08:34:05;19.48;;;10.50;;
45007;SDS011;30743;52.008;5.644;2023-04-06T08:36:31;15.88;;;10.60;;
45007;SDS011;30743;52.008;5.644;2023-04-06T08:38:57;16.70;;;10.88;;
45007;SDS011;30743;52.008;5.644;2023-04-06T08:41:23;18.48;;;11.52;;
45007;SDS011;30743;52.008;5.644;2023-04-06T08:43:58;17.63;;;11.40;;
45007;SDS011;30743;52.008;5.644;2023-04-06T08:46:25;16.27;;;10.35;;
45007;SDS011;30743;52.008;5.644;2023-04-06T08:51:22;15.75;;;10.93;;
45007;SDS011;30743;52.008;5.644;2023-04-06T08:53:49;16.23;;;10.88;;
45007;SDS011;30743;52.008;5.644;2023-04-06T08:56:15;14.43;;;10.18;;
45007;SDS011;30743;52.008;5.644;2023-04-06T08:58:40;18.85;;;11.50;;
45007;SDS011;30743;52.008;5.644;2023-04-06T09:01:08;17.52;;;11.45;;
45007;SDS011;30743;52.008;5.644;2023-04-06T09:03:39;18.33;;;11.18;;
45007;SDS011;30743;52.008;5.644;2023-04-06T09:06:06;17.48;;;11.25;;
45007;SDS011;30743;52.008;5.644;2023-04-06T09:08:33;19.05;;;11.52;;
45007;SDS011;30743;52.008;5.644;2023-04-06T09:11:03;19.35;;;11.45;;
45007;SDS011;30743;52.008;5.644;2023-04-06T09:13:29;23.58;;;11.30;;
45007;SDS011;30743;52.008;5.644;2023-04-06T09:15:59;18.17;;;11.93;;
45007;SDS011;30743;52.008;5.644;2023-04-06T09:18:32;18.77;;;11.85;;
45007;SDS011;30743;52.008;5.644;2023-04-06T09:20:59;26.70;;;12.75;;
45007;SDS011;30743;52.008;5.644;2023-04-06T09:23:29;22.25;;;11.45;;
45007;SDS011;30743;52.008;5.644;2023-04-06T09:26:14;24.65;;;12.07;;
45007;SDS011;30743;52.008;5.644;2023-04-06T09:28:51;19.05;;;12.43;;
45007;SDS011;30743;52.008;5.644;2023-04-06T09:31:25;18.38;;;12.10;;
45007;SDS011;30743;52.008;5.644;2023-04-06T09:33:52;19.25;;;12.45;;
45007;SDS011;30743;52.008;5.644;2023-04-06T09:36:19;19.13;;;11.55;;
45007;SDS011;30743;52.008;5.644;2023-04-06T09:41:23;19.25;;;12.63;;
45007;SDS011;30743;52.008;5.644;2023-04-06T09:44:08;19.77;;;12.02;;
45007;SDS011;30743;52.008;5.644;2023-04-06T09:46:38;18.35;;;13.18;;
45007;SDS011;30743;52.008;5.644;2023-04-06T09:49:05;19.88;;;12.95;;
45007;SDS011;30743;52.008;5.644;2023-04-06T09:51:35;23.73;;;12.90;;
45007;SDS011;30743;52.008;5.644;2023-04-06T09:54:05;20.20;;;12.90;;
45007;SDS011;30743;52.008;5.644;2023-04-06T09:56:37;19.08;;;11.75;;
45007;SDS011;30743;52.008;5.644;2023-04-06T09:59:12;20.33;;;12.63;;
45007;SDS011;30743;52.008;5.644;2023-04-06T10:01:39;18.20;;;12.07;;
45007;SDS011;30743;52.008;5.644;2023-04-06T10:06:43;19.50;;;12.52;;
45007;SDS011;30743;52.008;5.644;2023-04-06T10:11:39;17.77;;;11.23;;
45007;SDS011;30743;52.008;5.644;2023-04-06T10:14:06;17.08;;;10.82;;
45007;SDS011;30743;52.008;5.644;2023-04-06T10:16:32;19.58;;;11.93;;
45007;SDS011;30743;52.008;5.644;2023-04-06T10:18:59;20.85;;;12.00;;
45007;SDS011;30743;52.008;5.644;2023-04-06T10:21:31;20.67;;;12.38;;
45007;SDS011;30743;52.008;5.644;2023-04-06T10:23:59;21.55;;;12.85;;
45007;SDS011;30743;52.008;5.644;2023-04-06T10:26:27;17.88;;;12.18;;
45007;SDS011;30743;52.008;5.644;2023-04-06T10:28:53;19.23;;;11.52;;
45007;SDS011;30743;52.008;5.644;2023-04-06T10:31:26;19.55;;;11.90;;
45007;SDS011;30743;52.008;5.644;2023-04-06T10:36:26;16.95;;;9.82;;
45007;SDS011;30743;52.008;5.644;2023-04-06T10:39:04;15.93;;;10.20;;
45007;SDS011;30743;52.008;5.644;2023-04-06T10:41:34;18.20;;;10.35;;
45007;SDS011;30743;52.008;5.644;2023-04-06T10:44:01;14.10;;;9.85;;
45007;SDS011;30743;52.008;5.644;2023-04-06T10:46:28;17.00;;;11.07;;
45007;SDS011;30743;52.008;5.644;2023-04-06T10:48:57;15.93;;;10.02;;
45007;SDS011;30743;52.008;5.644;2023-04-06T10:51:37;17.48;;;10.65;;
45007;SDS011;30743;52.008;5.644;2023-04-06T10:54:03;14.65;;;10.57;;
45007;SDS011;30743;52.008;5.644;2023-04-06T10:56:30;15.32;;;9.63;;
45007;SDS011;30743;52.008;5.644;2023-04-06T10:58:59;14.00;;;9.75;;
45007;SDS011;30743;52.008;5.644;2023-04-06T11:01:25;11.95;;;8.85;;
45007;SDS011;30743;52.008;5.644;2023-04-06T11:03:53;15.00;;;8.80;;
45007;SDS011;30743;52.008;5.644;2023-04-06T11:06:20;9.73;;;7.03;;
45007;SDS011;30743;52.008;5.644;2023-04-06T11:08:50;9.75;;;6.45;;
45007;SDS011;30743;52.008;5.644;2023-04-06T11:11:17;12.85;;;7.25;;
45007;SDS011;30743;52.008;5.644;2023-04-06T11:13:46;9.27;;;6.82;;
45007;SDS011;30743;52.008;5.644;2023-04-06T11:18:57;8.30;;;6.10;;
45007;SDS011;30743;52.008;5.644;2023-04-06T11:24:15;9.07;;;6.00;;
45007;SDS011;30743;52.008;5.644;2023-04-06T11:26:51;10.27;;;6.15;;
45007;SDS011;30743;52.008;5.644;2023-04-06T11:29:22;8.80;;;6.32;;
45007;SDS011;30743;52.008;5.644;2023-04-06T11:34:19;11.07;;;7.13;;
45007;SDS011;30743;52.008;5.644;2023-04-06T11:36:46;9.65;;;6.60;;
45007;SDS011;30743;52.008;5.644;2023-04-06T11:39:13;10.90;;;6.00;;
45007;SDS011;30743;52.008;5.644;2023-04-06T11:41:47;7.93;;;5.57;;
45007;SDS011;30743;52.008;5.644;2023-04-06T11:44:13;8.98;;;4.85;;
45007;SDS011;30743;52.008;5.644;2023-04-06T11:46:38;8.40;;;5.32;;
45007;SDS011;30743;52.008;5.644;2023-04-06T11:49:04;8.48;;;5.35;;
45007;SDS011;30743;52.008;5.644;2023-04-06T11:51:30;7.57;;;4.50;;
45007;SDS011;30743;52.008;5.644;2023-04-06T11:54:01;8.38;;;4.60;;
45007;SDS011;30743;52.008;5.644;2023-04-06T11:56:29;7.50;;;4.90;;
45007;SDS011;30743;52.008;5.644;2023-04-06T11:58:56;8.63;;;5.95;;
45007;SDS011;30743;52.008;5.644;2023-04-06T12:01:24;9.38;;;6.07;;
45007;SDS011;30743;52.008;5.644;2023-04-06T12:03:50;8.50;;;5.95;;
45007;SDS011;30743;52.008;5.644;2023-04-06T12:06:17;8.88;;;5.88;;
45007;SDS011;30743;52.008;5.644;2023-04-06T12:08:43;9.57;;;5.72;;
45007;SDS011;30743;52.008;5.644;2023-04-06T12:11:09;11.38;;;5.32;;
45007;SDS011;30743;52.008;5.644;2023-04-06T12:13:35;8.60;;;5.30;;
45007;SDS011;30743;52.008;5.644;2023-04-06T12:16:00;7.88;;;4.78;;
45007;SDS011;30743;52.008;5.644;2023-04-06T12:18:26;7.80;;;4.35;;
45007;SDS011;30743;52.008;5.644;2023-04-06T12:20:51;6.22;;;4.28;;
45007;SDS011;30743;52.008;5.644;2023-04-06T12:23:18;6.68;;;4.22;;
45007;SDS011;30743;52.008;5.644;2023-04-06T12:25:44;6.75;;;3.83;;
45007;SDS011;30743;52.008;5.644;2023-04-06T12:28:10;9.57;;;4.43;;
45007;SDS011;30743;52.008;5.644;2023-04-06T12:30:36;5.68;;;4.07;;
45007;SDS011;30743;52.008;5.644;2023-04-06T12:33:01;7.55;;;4.47;;
45007;SDS011;30743;52.008;5.644;2023-04-06T12:35:27;9.68;;;4.43;;
45007;SDS011;30743;52.008;5.644;2023-04-06T12:37:52;6.35;;;3.95;;
45007;SDS011;30743;52.008;5.644;2023-04-06T12:40:18;7.85;;;4.72;;
45007;SDS011;30743;52.008;5.644;2023-04-06T12:42:44;6.90;;;4.18;;
45007;SDS011;30743;52.008;5.644;2023-04-06T12:45:11;6.45;;;4.50;;
45007;SDS011;30743;52.008;5.644;2023-04-06T12:47:37;6.68;;;3.95;;
45007;SDS011;30743;52.008;5.644;2023-04-06T12:50:03;5.70;;;4.30;;
45007;SDS011;30743;52.008;5.644;2023-04-06T12:52:31;5.47;;;3.40;;
45007;SDS011;30743;52.008;5.644;2023-04-06T12:54:59;6.60;;;3.97;;
45007;SDS011;30743;52.008;5.644;2023-04-06T12:57:26;7.53;;;4.18;;
45007;SDS011;30743;52.008;5.644;2023-04-06T12:59:51;6.50;;;3.88;;
45007;SDS011;30743;52.008;5.644;2023-04-06T13:02:17;7.85;;;4.28;;
45007;SDS011;30743;52.008;5.644;2023-04-06T13:04:45;6.40;;;4.63;;
45007;SDS011;30743;52.008;5.644;2023-04-06T13:07:11;9.63;;;3.75;;
45007;SDS011;30743;52.008;5.644;2023-04-06T13:09:36;7.10;;;4.82;;
45007;SDS011;30743;52.008;5.644;2023-04-06T13:12:02;7.13;;;4.53;;
45007;SDS011;30743;52.008;5.644;2023-04-06T13:14:27;5.78;;;3.97;;
45007;SDS011;30743;52.008;5.644;2023-04-06T13:16:53;7.50;;;4.95;;
45007;SDS011;30743;52.008;5.644;2023-04-06T13:19:19;6.28;;;3.90;;
45007;SDS011;30743;52.008;5.644;2023-04-06T13:21:44;6.28;;;4.15;;
45007;SDS011;30743;52.008;5.644;2023-04-06T13:24:10;7.43;;;4.22;;
45007;SDS011;30743;52.008;5.644;2023-04-06T13:26:35;7.53;;;4.72;;
45007;SDS011;30743;52.008;5.644;2023-04-06T13:29:01;8.18;;;4.65;;
45007;SDS011;30743;52.008;5.644;2023-04-06T13:31:27;7.07;;;4.78;;
45007;SDS011;30743;52.008;5.644;2023-04-06T13:33:53;7.20;;;4.45;;
45007;SDS011;30743;52.008;5.644;2023-04-06T13:36:19;8.43;;;4.90;;
45007;SDS011;30743;52.008;5.644;2023-04-06T13:38:44;9.02;;;5.00;;
45007;SDS011;30743;52.008;5.644;2023-04-06T13:41:13;8.00;;;5.03;;
45007;SDS011;30743;52.008;5.644;2023-04-06T13:43:48;6.90;;;4.60;;
45007;SDS011;30743;52.008;5.644;2023-04-06T13:46:14;9.45;;;5.00;;
45007;SDS011;30743;52.008;5.644;2023-04-06T13:48:41;10.52;;;5.93;;
45007;SDS011;30743;52.008;5.644;2023-04-06T13:51:07;8.43;;;4.90;;
45007;SDS011;30743;52.008;5.644;2023-04-06T13:56:02;8.40;;;4.28;;
45007;SDS011;30743;52.008;5.644;2023-04-06T13:58:27;7.90;;;5.10;;
45007;SDS011;30743;52.008;5.644;2023-04-06T14:00:53;9.20;;;5.35;;
45007;SDS011;30743;52.008;5.644;2023-04-06T14:03:19;6.70;;;4.68;;
45007;SDS011;30743;52.008;5.644;2023-04-06T14:05:46;8.98;;;5.78;;
45007;SDS011;30743;52.008;5.644;2023-04-06T14:08:12;10.20;;;5.32;;
45007;SDS011;30743;52.008;5.644;2023-04-06T14:10:40;8.43;;;5.07;;
45007;SDS011;30743;52.008;5.644;2023-04-06T14:13:07;7.70;;;5.32;;
45007;SDS011;30743;52.008;5.644;2023-04-06T14:15:33;7.43;;;5.43;;
45007;SDS011;30743;52.008;5.644;2023-04-06T14:17:59;10.40;;;6.00;;
45007;SDS011;30743;52.008;5.644;2023-04-06T14:20:25;8.77;;;5.55;;
45007;SDS011;30743;52.008;5.644;2023-04-06T14:22:51;9.07;;;5.85;;
45007;SDS011;30743;52.008;5.644;2023-04-06T14:25:17;10.85;;;5.22;;
45007;SDS011;30743;52.008;5.644;2023-04-06T14:27:43;8.82;;;6.53;;
45007;SDS011;30743;52.008;5.644;2023-04-06T14:30:09;9.07;;;5.70;;
45007;SDS011;30743;52.008;5.644;2023-04-06T14:32:35;7.22;;;5.50;;
45007;SDS011;30743;52.008;5.644;2023-04-06T14:35:02;11.70;;;5.78;;
45007;SDS011;30743;52.008;5.644;2023-04-06T14:37:28;8.55;;;5.38;;
45007;SDS011;30743;52.008;5.644;2023-04-06T14:39:54;10.35;;;6.72;;
45007;SDS011;30743;52.008;5.644;2023-04-06T14:42:19;7.70;;;5.35;;
45007;SDS011;30743;52.008;5.644;2023-04-06T14:44:45;9.48;;;6.00;;
45007;SDS011;30743;52.008;5.644;2023-04-06T14:47:11;9.57;;;6.22;;
45007;SDS011;30743;52.008;5.644;2023-04-06T14:49:39;7.38;;;5.53;;
45007;SDS011;30743;52.008;5.644;2023-04-06T14:52:05;9.40;;;5.90;;
45007;SDS011;30743;52.008;5.644;2023-04-06T14:54:30;8.85;;;6.15;;
45007;SDS011;30743;52.008;5.644;2023-04-06T14:56:56;9.63;;;6.35;;